Time;durP1;ratioP1;P1;durP2;ratioP2;P2;SDS_P1;SDS_P2;PMS_P1;PMS_P2;Temp;Humidity;BMP_temperature;BMP_pressure;BME280_temperature;BME280_humidity;BME280_pressure;Samples;Min_cycle;Max_cycle;Signal;HPM_P1;HPM_P2
2023/07/31 00:01:44;;;;;;;1999.90;999.90;;;18.20;99.90;;;;;;5016820;28;20036;-77
2023/07/31 00:04:10;;;;;;;1999.90;999.90;;;18.20;99.90;;;;;;5034828;28;20021;-71
2023/07/31 00:06:35;;;;;;;1999.90;999.90;;;18.20;99.90;;;;;;5034662;28;20376;-71
2023/07/31 00:09:01;;;;;;;1999.90;999.90;;;18.20;99.90;;;;;;5033866;28;20022;-71
2023/07/31 00:11:26;;;;;;;1999.90;999.90;;;18.30;99.90;;;;;;5034048;28;20139;-71
2023/07/31 00:13:53;;;;;;;1999.90;999.90;;;18.30;99.90;;;;;;5034481;28;20029;-71
2023/07/31 00:16:19;;;;;;;1999.90;999.90;;;18.30;99.90;;;;;;5034138;28;20029;-71
2023/07/31 00:18:45;;;;;;;1999.90;999.90;;;18.40;99.90;;;;;;5016239;28;20164;-71
2023/07/31 00:21:10;;;;;;;1999.90;999.90;;;18.40;99.90;;;;;;5033269;28;20053;-71
2023/07/31 00:23:36;;;;;;;1999.90;999.90;;;18.40;99.90;;;;;;5016276;28;20026;-71
2023/07/31 00:26:01;;;;;;;1999.90;999.90;;;18.40;99.90;;;;;;5033812;28;20018;-77
2023/07/31 00:28:28;;;;;;;1999.90;999.90;;;18.50;99.90;;;;;;5034272;28;20021;-71
2023/07/31 00:30:54;;;;;;;1999.90;999.90;;;18.40;99.90;;;;;;5016101;28;20480;-71
2023/07/31 00:33:19;;;;;;;1999.90;999.90;;;18.40;99.90;;;;;;5015811;28;20037;-71
2023/07/31 00:35:45;;;;;;;1999.90;999.90;;;18.40;99.90;;;;;;5033757;28;20026;-71
2023/07/31 00:38:11;;;;;;;1999.90;999.90;;;18.40;99.90;;;;;;5034031;28;20037;-77
2023/07/31 00:40:37;;;;;;;1999.90;999.90;;;18.40;99.90;;;;;;5016249;28;20068;-72
2023/07/31 00:43:03;;;;;;;1999.90;999.90;;;18.50;99.90;;;;;;5033574;28;20403;-71
2023/07/31 00:45:29;;;;;;;1999.90;999.90;;;18.50;99.90;;;;;;5033948;28;20017;-71
2023/07/31 00:47:55;;;;;;;1999.90;999.90;;;18.50;99.90;;;;;;5032964;28;20037;-71
2023/07/31 00:50:24;;;;;;;1999.90;999.90;;;18.50;99.90;;;;;;5033076;28;20036;-71
2023/07/31 00:52:49;;;;;;;1999.90;999.90;;;18.50;99.90;;;;;;5033791;28;20427;-77
2023/07/31 00:55:15;;;;;;;1999.90;999.90;;;18.50;99.90;;;;;;5033625;28;20026;-77
2023/07/31 00:57:42;;;;;;;1999.90;999.90;;;18.50;99.90;;;;;;5032464;28;20036;-71
2023/07/31 01:00:08;;;;;;;1999.90;999.90;;;18.50;99.90;;;;;;5033142;28;20021;-71
2023/07/31 01:02:35;;;;;;;1999.90;999.90;;;18.60;99.90;;;;;;5015957;28;20025;-71
2023/07/31 01:05:02;;;;;;;1999.90;999.90;;;18.60;99.90;;;;;;5015502;28;20022;-77
2023/07/31 01:07:58;;;;;;;1999.90;999.90;;;18.70;99.90;;;;;;5033151;28;20092;-76
2023/07/31 01:10:29;;;;;;;1999.90;999.90;;;18.70;99.90;;;;;;5032814;28;20454;-71
2023/07/31 01:12:57;;;;;;;1999.90;999.90;;;18.70;99.90;;;;;;5032950;28;20104;-70
2023/07/31 01:15:23;;;;;;;1999.90;999.90;;;18.70;99.90;;;;;;5033261;28;20080;-71
2023/07/31 01:17:48;;;;;;;1999.90;999.90;;;18.70;99.90;;;;;;5033548;28;20033;-71
2023/07/31 01:20:20;;;;;;;1999.90;999.90;;;18.70;99.90;;;;;;5033389;28;20021;-71
2023/07/31 01:23:20;;;;;;;1999.90;999.90;;;18.70;99.90;;;;;;5032979;28;20041;-71
2023/07/31 01:25:58;;;;;;;1999.90;999.90;;;18.70;99.90;;;;;;5011304;28;20065;-70
2023/07/31 01:28:33;;;;;;;1999.90;999.90;;;18.70;99.90;;;;;;5033445;28;20477;-71
2023/07/31 01:31:01;;;;;;;1999.90;999.90;;;18.70;99.90;;;;;;5033028;28;20109;-77
2023/07/31 01:33:27;;;;;;;1999.90;999.90;;;18.70;99.90;;;;;;5033189;28;20029;-71
2023/07/31 01:35:53;;;;;;;1999.90;999.90;;;18.60;99.90;;;;;;5014929;28;20029;-71
2023/07/31 01:38:22;;;;;;;1999.90;999.90;;;18.60;99.90;;;;;;5032798;28;20117;-71
2023/07/31 01:40:52;;;;;;;1999.90;999.90;;;18.70;99.90;;;;;;5033049;28;20482;-71
2023/07/31 01:43:18;;;;;;;1999.90;999.90;;;18.70;99.90;;;;;;5032597;28;20049;-77
2023/07/31 01:45:44;;;;;;;1999.90;999.90;;;18.70;99.90;;;;;;5015665;28;20054;-78
2023/07/31 01:48:10;;;;;;;1999.90;999.90;;;18.80;99.90;;;;;;5032348;28;20033;-71
2023/07/31 01:50:36;;;;;;;1999.90;999.90;;;18.80;99.90;;;;;;5032824;28;20053;-71
2023/07/31 01:53:01;;;;;;;1999.90;999.90;;;18.90;99.90;;;;;;5015168;28;20033;-71
2023/07/31 01:55:27;;;;;;;1999.90;999.90;;;18.90;99.90;;;;;;5032919;28;20022;-70
2023/07/31 01:57:52;;;;;;;1999.90;999.90;;;18.90;99.90;;;;;;5032751;28;20025;-77
2023/07/31 02:00:18;;;;;;;1999.90;999.90;;;18.90;99.90;;;;;;5032912;28;20017;-71
2023/07/31 02:02:44;;;;;;;1999.90;999.90;;;18.80;99.90;;;;;;5032975;28;20083;-71
2023/07/31 02:05:09;;;;;;;1999.90;999.90;;;18.70;99.90;;;;;;5033107;28;20029;-71
2023/07/31 02:07:35;;;;;;;1999.90;999.90;;;18.70;99.90;;;;;;5033027;28;20025;-71
2023/07/31 02:10:01;;;;;;;1999.90;999.90;;;18.70;99.90;;;;;;5032328;28;20030;-77
2023/07/31 02:12:26;;;;;;;1999.90;999.90;;;18.60;99.90;;;;;;5032686;28;20495;-71
2023/07/31 02:14:52;;;;;;;1999.90;999.90;;;18.60;99.90;;;;;;5032634;28;20396;-71
2023/07/31 02:17:18;;;;;;;1999.90;999.90;;;18.60;99.90;;;;;;5032698;28;20026;-71
2023/07/31 02:19:43;;;;;;;1999.90;999.90;;;18.60;99.90;;;;;;5036345;28;20396;-71
2023/07/31 02:22:09;;;;;;;1999.90;999.90;;;18.60;99.90;;;;;;5015808;28;20022;-71
2023/07/31 02:24:34;;;;;;;1999.90;999.90;;;18.60;99.90;;;;;;5053299;28;20029;-77
2023/07/31 02:27:00;;;;;;;1999.90;999.90;;;18.60;99.90;;;;;;5035891;28;20057;-71
2023/07/31 02:29:26;;;;;;;1999.90;999.90;;;18.60;99.90;;;;;;5036556;28;20030;-71
2023/07/31 02:31:51;;;;;;;1999.90;999.90;;;18.60;99.90;;;;;;5036090;28;20033;-71
2023/07/31 02:34:17;;;;;;;1999.90;999.90;;;18.60;99.90;;;;;;5035926;28;20026;-70
2023/07/31 02:36:42;;;;;;;1999.90;999.90;;;18.60;99.90;;;;;;5036047;28;20060;-77
2023/07/31 02:39:08;;;;;;;1999.90;999.90;;;18.60;99.90;;;;;;5036069;28;20053;-71
2023/07/31 02:41:33;;;;;;;1999.90;999.90;;;18.50;99.90;;;;;;5036263;28;20384;-71
2023/07/31 02:43:59;;;;;;;1999.90;999.90;;;18.50;99.90;;;;;;5035546;28;20045;-71
2023/07/31 02:46:25;;;;;;;1999.90;999.90;;;18.50;99.90;;;;;;5035736;28;20033;-71
2023/07/31 02:48:51;;;;;;;1999.90;999.90;;;18.50;99.90;;;;;;5034729;28;20025;-71
2023/07/31 02:51:16;;;;;;;1999.90;999.90;;;18.50;99.90;;;;;;5044942;28;20025;-77
2023/07/31 02:53:42;;;;;;;1999.90;999.90;;;18.50;99.90;;;;;;5055574;28;20083;-71
2023/07/31 02:56:08;;;;;;;1999.90;999.90;;;18.50;99.90;;;;;;5055892;28;20032;-71
2023/07/31 02:58:33;;;;;;;1999.90;999.90;;;18.50;99.90;;;;;;5055240;28;20426;-71
2023/07/31 03:00:59;;;;;;;1999.90;999.90;;;18.40;99.90;;;;;;5056012;28;20032;-71
2023/07/31 03:03:25;;;;;;;1999.90;999.90;;;18.40;99.90;;;;;;5061842;28;20156;-77
2023/07/31 03:05:50;;;;;;;1999.90;999.90;;;18.50;99.90;;;;;;5038078;28;20025;-77
2023/07/31 03:08:16;;;;;;;1999.90;999.90;;;18.50;99.90;;;;;;5057634;28;20028;-77
2023/07/31 03:10:42;;;;;;;1999.90;999.90;;;18.50;99.90;;;;;;5055416;28;20029;-71
2023/07/31 03:13:07;;;;;;;1999.90;999.90;;;18.50;99.90;;;;;;5036147;28;20090;-71
2023/07/31 03:15:33;;;;;;;1999.90;999.90;;;18.60;99.90;;;;;;5035454;28;20484;-78
2023/07/31 03:17:58;;;;;;;1999.90;999.90;;;18.60;99.90;;;;;;5035568;28;20030;-71
2023/07/31 03:20:24;;;;;;;1999.90;999.90;;;18.60;99.90;;;;;;5034723;28;20029;-71
2023/07/31 03:22:50;;;;;;;1999.90;999.90;;;18.50;99.90;;;;;;5035317;28;20060;-71
2023/07/31 03:25:15;;;;;;;1999.90;999.90;;;18.50;99.90;;;;;;5017248;28;20029;-71
2023/07/31 03:27:41;;;;;;;1999.90;999.90;;;18.50;99.90;;;;;;5035299;28;20033;-71
2023/07/31 03:30:07;;;;;;;1999.90;999.90;;;18.50;99.90;;;;;;5035108;28;20025;-71
2023/07/31 03:32:33;;;;;;;1999.90;999.90;;;18.60;99.90;;;;;;5035344;28;20104;-70
2023/07/31 03:34:58;;;;;;;1999.90;999.90;;;18.60;99.90;;;;;;5034786;28;20068;-71
2023/07/31 03:37:24;;;;;;;1999.90;999.90;;;18.60;99.90;;;;;;5034338;28;20087;-71
2023/07/31 03:39:50;;;;;;;1999.90;999.90;;;18.60;99.90;;;;;;5034877;28;20037;-71
2023/07/31 03:42:15;;;;;;;1999.90;999.90;;;18.60;99.90;;;;;;5035142;28;20021;-77
2023/07/31 03:44:41;;;;;;;1999.90;999.90;;;18.60;99.90;;;;;;5017170;28;20108;-71
2023/07/31 03:47:06;;;;;;;1999.90;999.90;;;18.50;99.90;;;;;;5034839;28;20029;-71
2023/07/31 03:49:32;;;;;;;1999.90;999.90;;;18.60;99.90;;;;;;5034017;28;20037;-71
2023/07/31 03:51:58;;;;;;;1999.90;999.90;;;18.50;99.90;;;;;;5034333;28;20033;-71
2023/07/31 03:54:23;;;;;;;1999.90;999.90;;;18.50;99.90;;;;;;5016938;28;20025;-71
2023/07/31 03:56:49;;;;;;;1999.90;999.90;;;18.50;99.90;;;;;;5016782;28;20025;-71
2023/07/31 03:59:15;;;;;;;1999.90;999.90;;;18.40;99.90;;;;;;5034234;28;20075;-71
2023/07/31 04:01:40;;;;;;;1999.90;999.90;;;18.40;99.90;;;;;;5034826;28;20022;-71
2023/07/31 04:04:06;;;;;;;1999.90;999.90;;;18.40;99.90;;;;;;5034199;28;20040;-71
2023/07/31 04:06:31;;;;;;;1999.90;999.90;;;18.40;99.90;;;;;;5034907;28;20022;-76
2023/07/31 04:08:57;;;;;;;1999.90;999.90;;;18.40;99.90;;;;;;5034154;28;20022;-77
2023/07/31 04:11:23;;;;;;;1999.90;999.90;;;18.40;99.90;;;;;;5016380;28;20022;-71
2023/07/31 04:13:48;;;;;;;1999.90;999.90;;;18.40;99.90;;;;;;5034569;28;20022;-71
2023/07/31 04:16:14;;;;;;;1999.90;999.90;;;18.40;99.90;;;;;;5034625;28;20030;-71
2023/07/31 04:18:40;;;;;;;1999.90;999.90;;;18.40;99.90;;;;;;5034109;28;20105;-77
2023/07/31 04:21:05;;;;;;;1999.90;999.90;;;18.40;99.90;;;;;;5033805;28;20025;-71
2023/07/31 04:23:31;;;;;;;1999.90;999.90;;;18.40;99.90;;;;;;5016552;28;20159;-71
2023/07/31 04:25:56;;;;;;;1999.90;999.90;;;18.40;99.90;;;;;;5034080;28;20454;-77
2023/07/31 04:28:22;;;;;;;1999.90;999.90;;;18.50;99.90;;;;;;5037554;28;20029;-77
2023/07/31 04:30:48;;;;;;;1999.90;999.90;;;18.50;99.90;;;;;;5035009;28;20037;-71
2023/07/31 04:33:13;;;;;;;1999.90;999.90;;;18.60;99.90;;;;;;5035426;28;20017;-76
2023/07/31 04:35:39;;;;;;;1999.90;999.90;;;18.60;99.90;;;;;;5019343;28;20033;-77
2023/07/31 04:38:04;;;;;;;1999.90;999.90;;;18.70;99.90;;;;;;5034012;28;20030;-71
2023/07/31 04:40:30;;;;;;;1999.90;999.90;;;18.70;99.90;;;;;;5033119;28;20033;-71
2023/07/31 04:42:56;;;;;;;1999.90;999.90;;;18.80;99.90;;;;;;5033827;28;20049;-70
2023/07/31 04:45:21;;;;;;;1999.90;999.90;;;18.70;99.90;;;;;;5033807;28;20507;-71
2023/07/31 04:47:47;;;;;;;1999.90;999.90;;;18.70;99.90;;;;;;5033378;28;20103;-71
2023/07/31 04:50:12;;;;;;;1999.90;999.90;;;18.60;99.90;;;;;;5015653;28;20034;-71
2023/07/31 04:52:38;;;;;;;1999.90;999.90;;;18.70;99.90;;;;;;5053867;28;20105;-72
2023/07/31 04:55:04;;;;;;;1999.90;999.90;;;18.70;99.90;;;;;;5053095;28;20112;-71
2023/07/31 04:57:29;;;;;;;1999.90;999.90;;;18.70;99.90;;;;;;5055544;28;20025;-71
2023/07/31 04:59:55;;;;;;;1999.90;999.90;;;18.70;99.90;;;;;;5057429;28;20056;-71
2023/07/31 05:02:21;;;;;;;1999.90;999.90;;;18.70;99.90;;;;;;5054881;28;20522;-71
2023/07/31 05:04:46;;;;;;;1999.90;999.90;;;18.80;99.90;;;;;;5053893;28;20025;-71
2023/07/31 05:07:12;;;;;;;1999.90;999.90;;;18.80;99.90;;;;;;5053775;28;20399;-77
2023/07/31 05:09:39;;;;;;;1999.90;999.90;;;18.80;99.90;;;;;;5051234;28;20460;-71
2023/07/31 05:12:05;;;;;;;1999.90;999.90;;;18.80;99.90;;;;;;5016088;28;20036;-77
2023/07/31 05:14:31;;;;;;;1999.90;999.90;;;18.90;99.90;;;;;;5033329;28;20032;-77
2023/07/31 05:16:57;;;;;;;1999.90;999.90;;;18.80;99.90;;;;;;5033478;28;20025;-70
2023/07/31 05:19:22;;;;;;;1999.90;999.90;;;18.80;99.90;;;;;;5015235;28;20119;-77
2023/07/31 05:21:48;;;;;;;1999.90;999.90;;;18.80;99.90;;;;;;5033219;28;20097;-71
2023/07/31 05:24:13;;;;;;;1999.90;999.90;;;18.80;99.90;;;;;;5015471;28;20030;-71
2023/07/31 05:26:39;;;;;;;1999.90;999.90;;;18.90;99.90;;;;;;5033014;28;20022;-78
2023/07/31 05:29:05;;;;;;;1999.90;999.90;;;18.90;99.90;;;;;;5031214;28;20025;-71
2023/07/31 05:31:32;;;;;;;1999.90;999.90;;;18.90;99.90;;;;;;5016016;28;20022;-71
2023/07/31 05:33:57;;;;;;;1999.90;999.90;;;18.90;99.90;;;;;;5033687;28;20080;-71
2023/07/31 05:36:23;;;;;;;1999.90;999.90;;;19.00;99.90;;;;;;5033853;28;20030;-72
2023/07/31 05:38:49;;;;;;;1999.90;999.90;;;19.10;99.90;;;;;;5043985;28;20181;-78
2023/07/31 05:41:14;;;;;;;1999.90;999.90;;;19.10;99.90;;;;;;5034691;28;20044;-72
2023/07/31 05:43:40;;;;;;;1999.90;999.90;;;19.30;99.90;;;;;;5032638;28;20493;-73
2023/07/31 05:46:06;;;;;;;1999.90;999.90;;;19.40;99.90;;;;;;5042194;28;20036;-73
2023/07/31 05:48:34;;;;;;;1999.90;999.90;;;19.50;99.90;;;;;;5033721;28;20392;-72
2023/07/31 05:50:59;;;;;;;1999.90;999.90;;;19.50;99.90;;;;;;5038561;28;20057;-73
2023/07/31 05:53:25;;;;;;;1999.90;999.90;;;19.50;99.90;;;;;;5055902;28;20482;-73
2023/07/31 05:55:51;;;;;;;1999.90;999.90;;;19.50;99.90;;;;;;5045395;28;20045;-73
2023/07/31 05:58:16;;;;;;;1999.90;999.90;;;19.50;99.90;;;;;;5035063;28;20035;-73
2023/07/31 06:00:42;;;;;;;1999.90;999.90;;;19.60;99.90;;;;;;5043818;28;20032;-71
2023/07/31 06:03:07;;;;;;;1999.90;999.90;;;19.60;99.90;;;;;;5054306;28;20036;-78
2023/07/31 06:05:33;;;;;;;1999.90;999.90;;;19.60;99.90;;;;;;5055758;28;20029;-72
2023/07/31 06:07:59;;;;;;;1999.90;999.90;;;19.50;99.90;;;;;;5038010;28;20403;-73
2023/07/31 06:10:25;;;;;;;1999.90;999.90;;;19.60;99.90;;;;;;5047084;28;20036;-72
2023/07/31 06:12:50;;;;;;;1999.90;999.90;;;19.80;99.90;;;;;;5035575;28;20049;-73
2023/07/31 06:15:17;;;;;;;1999.90;999.90;;;19.80;99.90;;;;;;5041549;28;20394;-73
2023/07/31 06:17:43;;;;;;;1999.90;999.90;;;19.90;99.90;;;;;;5035485;28;20041;-78
2023/07/31 06:20:09;;;;;;;1999.90;999.90;;;20.00;99.90;;;;;;5035201;28;20033;-74
2023/07/31 06:22:35;;;;;;;1999.90;999.90;;;20.00;99.90;;;;;;5035889;28;20084;-73
2023/07/31 06:25:01;;;;;;;1999.90;999.90;;;20.10;99.90;;;;;;5038249;28;20084;-73
2023/07/31 06:27:26;;;;;;;1999.90;999.90;;;20.20;99.90;;;;;;5020005;28;20424;-73
2023/07/31 06:29:52;;;;;;;1999.90;999.90;;;20.30;99.90;;;;;;5035651;28;20107;-71
2023/07/31 06:32:18;;;;;;;1999.90;999.90;;;20.20;99.90;;;;;;5035359;28;20018;-78
2023/07/31 06:34:43;;;;;;;1999.90;999.90;;;20.40;99.90;;;;;;5035472;28;20117;-71
2023/07/31 06:37:09;;;;;;;1999.90;999.90;;;20.50;99.90;;;;;;5017345;28;20132;-73
2023/07/31 06:39:35;;;;;;;1999.90;999.90;;;20.60;99.90;;;;;;5035921;28;20033;-72
2023/07/31 06:42:00;;;;;;;1999.90;999.90;;;20.60;99.90;;;;;;5035122;28;20380;-79
2023/07/31 06:44:26;;;;;;;1999.90;999.90;;;20.60;99.90;;;;;;5035750;28;20484;-79
2023/07/31 06:46:51;;;;;;;1999.90;999.90;;;20.60;99.90;;;;;;5025190;28;20530;-73
2023/07/31 06:49:17;;;;;;;1999.90;999.90;;;20.60;99.90;;;;;;5042944;28;20040;-73
2023/07/31 06:51:44;;;;;;;1999.90;999.90;;;20.60;99.90;;;;;;5033140;28;20467;-73
2023/07/31 06:54:09;;;;;;;1999.90;999.90;;;20.50;99.90;;;;;;5027722;28;20029;-73
2023/07/31 06:56:35;;;;;;;1999.90;999.90;;;20.70;99.90;;;;;;5028941;28;20025;-74
2023/07/31 06:59:01;;;;;;;1999.90;999.90;;;20.80;99.90;;;;;;5033334;28;20480;-73
2023/07/31 07:01:27;;;;;;;1999.90;999.90;;;20.90;99.90;;;;;;5040908;28;20028;-72
2023/07/31 07:03:53;;;;;;;1999.90;999.90;;;20.70;99.90;;;;;;5032745;28;20068;-72
2023/07/31 07:06:19;;;;;;;1999.90;999.90;;;20.80;99.90;;;;;;5016863;28;20056;-72
2023/07/31 07:08:44;;;;;;;1999.90;999.90;;;20.80;99.90;;;;;;5035881;28;20454;-72
2023/07/31 07:11:10;;;;;;;1999.90;999.90;;;20.90;99.90;;;;;;5029076;28;20033;-74
2023/07/31 07:13:36;;;;;;;1999.90;999.90;;;21.00;99.90;;;;;;5039048;28;20032;-73
2023/07/31 07:16:01;;;;;;;1999.90;999.90;;;21.10;99.90;;;;;;5034404;28;20021;-73
2023/07/31 07:18:27;;;;;;;1999.90;999.90;;;21.20;99.90;;;;;;5034299;28;20026;-72
2023/07/31 07:20:54;;;;;;;1999.90;999.90;;;21.10;99.90;;;;;;5033890;28;20029;-72
2023/07/31 07:23:20;;;;;;;1999.90;999.90;;;21.10;99.90;;;;;;5042329;28;20040;-76
2023/07/31 07:25:47;;;;;;;1999.90;999.90;;;21.00;99.90;;;;;;5049883;28;20037;-72
2023/07/31 07:28:13;;;;;;;1999.90;999.90;;;21.00;99.90;;;;;;5031712;28;20026;-71
2023/07/31 07:30:39;;;;;;;1999.90;999.90;;;21.00;99.90;;;;;;5039130;28;20021;-72
2023/07/31 07:33:05;;;;;;;1999.90;999.90;;;20.90;99.90;;;;;;5038363;28;20036;-72
2023/07/31 07:35:34;;;;;;;1999.90;999.90;;;20.90;99.90;;;;;;5032331;28;20051;-79
2023/07/31 07:38:00;;;;;;;1999.90;999.90;;;20.90;99.90;;;;;;5033096;28;20053;-72
2023/07/31 07:40:26;;;;;;;1999.90;999.90;;;20.80;99.90;;;;;;5032847;28;20022;-72
2023/07/31 07:42:51;;;;;;;1999.90;999.90;;;20.80;99.90;;;;;;5013153;28;20390;-72
2023/07/31 07:45:17;;;;;;;1999.90;999.90;;;20.90;99.90;;;;;;5032236;28;20031;-73
2023/07/31 07:47:43;;;;;;;1999.90;999.90;;;20.90;99.90;;;;;;5032671;28;20049;-73
2023/07/31 07:50:09;;;;;;;1999.90;999.90;;;21.10;99.90;;;;;;5030828;28;20025;-72
2023/07/31 07:52:34;;;;;;;1999.90;999.90;;;21.10;99.90;;;;;;5031923;28;20038;-72
2023/07/31 07:55:00;;;;;;;1999.90;999.90;;;21.20;99.90;;;;;;5032830;28;20025;-72
2023/07/31 07:57:26;;;;;;;1999.90;999.90;;;21.30;99.90;;;;;;5014265;28;20407;-72
2023/07/31 07:59:52;;;;;;;1999.90;999.90;;;21.50;99.90;;;;;;5042234;28;20531;-72
2023/07/31 08:02:17;;;;;;;1999.90;999.90;;;21.40;99.90;;;;;;5048548;28;20044;-72
2023/07/31 08:04:43;;;;;;;1999.90;999.90;;;21.50;99.90;;;;;;5032608;28;20112;-72
2023/07/31 08:07:12;;;;;;;1999.90;999.90;;;21.70;99.90;;;;;;5014799;28;20404;-72
2023/07/31 08:09:37;;;;;;;1999.90;999.90;;;21.90;99.90;;;;;;5031308;28;20122;-72
2023/07/31 08:12:04;;;;;;;1999.90;999.90;;;22.30;99.90;;;;;;5029863;28;20149;-72
2023/07/31 08:14:29;;;;;;;1999.90;999.90;;;22.60;99.90;;;;;;5032214;28;20112;-79
2023/07/31 08:16:55;;;;;;;1999.90;999.90;;;22.50;99.90;;;;;;5028602;28;20756;-78
2023/07/31 08:19:21;;;;;;;1999.90;999.90;;;22.20;99.90;;;;;;5032661;28;20377;-73
2023/07/31 08:21:47;;;;;;;1999.90;999.90;;;21.90;99.90;;;;;;5045922;28;20029;-73
2023/07/31 08:24:12;;;;;;;1999.90;999.90;;;21.80;99.90;;;;;;5031783;28;20152;-73
2023/07/31 08:26:38;;;;;;;1999.90;999.90;;;21.80;99.90;;;;;;5013878;28;20029;-78
2023/07/31 08:29:03;;;;;;;1999.90;999.90;;;21.70;99.90;;;;;;5031222;28;20029;-72
2023/07/31 08:31:29;;;;;;;1999.90;999.90;;;21.80;99.90;;;;;;5015090;28;20022;-72
2023/07/31 08:33:55;;;;;;;1999.90;999.90;;;21.90;99.90;;;;;;5033175;28;20043;-72
2023/07/31 08:36:21;;;;;;;1999.90;999.90;;;21.90;99.90;;;;;;5031987;28;20022;-73
2023/07/31 08:38:46;;;;;;;1999.90;999.90;;;21.90;99.90;;;;;;5034128;28;20391;-72
2023/07/31 08:41:13;;;;;;;1999.90;999.90;;;22.30;99.90;;;;;;5031091;28;20049;-72
2023/07/31 08:43:39;;;;;;;1999.90;999.90;;;22.50;99.90;;;;;;5028405;28;20084;-72
2023/07/31 08:46:05;;;;;;;1999.90;999.90;;;22.80;99.90;;;;;;5031838;28;20083;-74
2023/07/31 08:48:32;;;;;;;1999.90;999.90;;;23.00;99.90;;;;;;5035579;28;20033;-72
2023/07/31 08:50:57;;;;;;;1999.90;999.90;;;22.90;99.90;;;;;;5030995;28;20079;-72
2023/07/31 08:53:23;;;;;;;1999.90;999.90;;;22.90;99.90;;;;;;5023034;28;20056;-79
2023/07/31 08:55:49;;;;;;;1999.90;999.90;;;22.80;99.90;;;;;;5029712;28;20496;-72
2023/07/31 08:58:17;;;;;;;1999.90;999.90;;;22.80;99.90;;;;;;5029691;28;20033;-73
2023/07/31 09:00:44;;;;;;;1999.90;999.90;;;22.80;99.90;;;;;;5029135;28;20025;-72
2023/07/31 09:03:16;;;;;;;1999.90;999.90;;;23.20;99.90;;;;;;5033688;28;20029;-73
2023/07/31 09:05:44;;;;;;;;;;;23.60;99.90;;;;;;5029719;28;20097;-72
2023/07/31 09:08:11;;;;;;;1999.90;999.90;;;23.30;99.90;;;;;;5011870;28;19940;-72
2023/07/31 09:10:45;;;;;;;1999.90;999.90;;;23.10;99.90;;;;;;5027135;28;20123;-73
2023/07/31 09:13:12;;;;;;;1999.90;999.90;;;22.70;99.90;;;;;;5028932;28;20037;-72
2023/07/31 09:15:38;;;;;;;1999.90;999.90;;;23.00;99.90;;;;;;5013071;28;20108;-72
2023/07/31 09:18:05;;;;;;;1999.90;999.90;;;23.80;99.90;;;;;;5012172;28;20029;-73
2023/07/31 09:20:31;;;;;;;1999.90;999.90;;;23.80;99.90;;;;;;5030102;28;20056;-74
2023/07/31 09:23:09;;;;;;;1999.90;999.90;;;23.70;99.90;;;;;;5010944;28;20025;-73
2023/07/31 09:25:35;;;;;;;1999.90;999.90;;;23.90;99.90;;;;;;5029447;28;20033;-72
2023/07/31 09:28:03;;;;;;;1999.90;999.90;;;23.80;99.90;;;;;;5031070;28;20049;-73
2023/07/31 09:30:30;;;;;;;1999.90;999.90;;;23.70;99.90;;;;;;5013974;28;20029;-72
2023/07/31 09:33:05;;;;;;;1999.90;999.90;;;24.60;99.90;;;;;;5031299;28;20128;-72
2023/07/31 09:35:33;;;;;;;1999.90;999.90;;;24.20;99.90;;;;;;5015003;28;20030;-73
2023/07/31 09:38:01;;;;;;;1999.90;999.90;;;24.60;99.90;;;;;;5031197;28;20029;-73
2023/07/31 09:40:30;;;;;;;1999.90;999.90;;;24.80;99.90;;;;;;5032007;28;20112;-72
2023/07/31 09:43:03;;;;;;;1999.90;999.90;;;25.30;99.90;;;;;;5014275;28;20041;-73
2023/07/31 09:45:30;;;;;;;1999.90;999.90;;;25.70;99.90;;;;;;5027897;28;20026;-73
2023/07/31 09:47:56;;;;;;;1999.90;999.90;;;25.70;99.90;;;;;;5030585;28;20476;-73
2023/07/31 09:50:24;;;;;;;1999.90;999.90;;;25.10;99.90;;;;;;5031006;28;20396;-72
2023/07/31 09:52:50;;;;;;;1999.90;999.90;;;24.40;99.90;;;;;;5030161;28;20433;-73
2023/07/31 09:55:16;;;;;;;1999.90;999.90;;;25.60;99.90;;;;;;5031482;28;20033;-72
2023/07/31 09:57:44;;;;;;;1999.90;999.90;;;26.50;99.90;;;;;;5031043;28;20107;-73
2023/07/31 10:00:12;;;;;;;1999.90;999.90;;;25.80;99.90;;;;;;5031133;28;20484;-79
2023/07/31 10:02:38;;;;;;;1999.90;999.90;;;28.30;99.90;;;;;;5030913;28;20018;-73
2023/07/31 10:05:06;;;;;;;1999.90;999.90;;;29.50;99.90;;;;;;5012868;28;20116;-73
2023/07/31 10:07:36;;;;;;;1999.90;999.90;;;29.00;99.90;;;;;;5030494;28;20025;-73
2023/07/31 10:10:04;;;;;;;1999.90;999.90;;;29.70;99.90;;;;;;5024563;28;20030;-79
2023/07/31 10:12:33;;;;;;;1999.90;999.90;;;29.80;99.90;;;;;;5024491;28;20025;-71
2023/07/31 10:14:59;;;;;;;1999.90;999.90;;;29.30;99.90;;;;;;5029838;28;20030;-73
2023/07/31 10:17:26;;;;;;;1999.90;999.90;;;30.20;99.90;;;;;;5013092;28;20045;-73
2023/07/31 10:19:53;;;;;;;1999.90;999.90;;;31.20;99.90;;;;;;5030969;28;20071;-73
2023/07/31 10:22:21;;;;;;;1999.90;999.90;;;29.70;99.90;;;;;;5027117;28;20045;-73
2023/07/31 10:24:48;;;;;;;1999.90;999.90;;;27.90;99.90;;;;;;5016350;28;20109;-72
2023/07/31 10:27:14;;;;;;;1999.90;999.90;;;26.40;99.90;;;;;;5029160;28;20033;-79
2023/07/31 10:29:40;;;;;;;1999.90;999.90;;;25.80;99.90;;;;;;5031308;28;20029;-76
2023/07/31 10:32:10;;;;;;;1999.90;999.90;;;25.90;99.90;;;;;;5013634;28;20052;-77
2023/07/31 10:34:36;;;;;;;1999.90;999.90;;;25.20;99.90;;;;;;5038212;28;20076;-74
2023/07/31 10:37:28;;;;;;;1999.90;999.90;;;25.90;99.90;;;;;;5030592;28;20157;-78
2023/07/31 10:40:01;;;;;;;1999.90;999.90;;;28.00;99.90;;;;;;5033785;28;20649;-78
2023/07/31 10:42:38;;;;;;;1999.90;999.90;;;28.70;99.90;;;;;;5013089;28;20042;-78
2023/07/31 10:45:11;;;;;;;1999.90;999.90;;;29.10;99.90;;;;;;5016228;28;20041;-77
2023/07/31 10:47:45;;;;;;;1999.90;999.90;;;28.30;99.90;;;;;;5014926;28;20041;-81
2023/07/31 10:50:18;;;;;;;1999.90;999.90;;;29.00;99.90;;;;;;5012778;28;20037;-78
2023/07/31 10:52:51;;;;;;;1999.90;999.90;;;28.00;99.90;;;;;;5012587;28;20121;-72
2023/07/31 10:55:42;;;;;;;1999.90;999.90;;;26.30;99.90;;;;;;5016956;28;20092;-73
2023/07/31 10:58:18;;;;;;;1999.90;999.90;;;27.70;99.90;;;;;;5010707;28;20040;-73
2023/07/31 11:00:45;;;;;;;1999.90;999.90;;;27.80;99.90;;;;;;5012315;28;20339;-75
2023/07/31 11:03:18;;;;;;;1999.90;999.90;;;27.80;99.90;;;;;;5015788;28;20018;-74
2023/07/31 11:05:59;;;;;;;1999.90;999.90;;;28.40;99.90;;;;;;5020506;28;20034;-73
2023/07/31 11:08:33;;;;;;;1999.90;999.90;;;28.20;99.90;;;;;;5021365;28;20104;-75
2023/07/31 11:11:01;;;;;;;1999.90;999.90;;;28.70;99.90;;;;;;5008337;28;20133;-72
2023/07/31 11:13:33;;;;;;;1999.90;999.90;;;28.50;99.90;;;;;;5015170;28;20516;-73
2023/07/31 11:15:59;;;;;;;;;;;28.00;99.90;;;;;;5014109;28;20044;-79
2023/07/31 11:18:26;;;;;;;1999.90;999.90;;;28.50;99.90;;;;;;5014454;28;19921;-79
2023/07/31 11:20:53;;;;;;;1999.90;999.90;;;28.30;99.90;;;;;;5012417;28;20076;-73
2023/07/31 11:23:20;;;;;;;1999.90;999.90;;;28.50;99.90;;;;;;5018103;28;20212;-74
2023/07/31 11:25:45;;;;;;;1999.90;999.90;;;28.80;99.90;;;;;;5006827;28;20042;-72
2023/07/31 11:28:14;;;;;;;1999.90;999.90;;;29.40;99.90;;;;;;5017700;28;20080;-81
2023/07/31 11:30:42;;;;;;;1999.90;999.90;;;29.20;99.90;;;;;;5012680;28;20504;-80
2023/07/31 11:33:09;;;;;;;1999.90;999.90;;;28.80;99.90;;;;;;5011831;28;20109;-73
2023/07/31 11:35:46;;;;;;;1999.90;999.90;;;28.20;99.90;;;;;;5014336;28;20044;-78
2023/07/31 11:38:21;;;;;;;1999.90;999.90;;;28.10;99.90;;;;;;5012018;28;20049;-71
2023/07/31 11:40:47;;;;;;;1999.90;999.90;;;28.20;99.90;;;;;;5013842;28;20076;-80
2023/07/31 11:43:16;;;;;;;1999.90;999.90;;;28.20;99.90;;;;;;5012546;28;20030;-81
2023/07/31 11:45:47;;;;;;;1999.90;999.90;;;28.40;99.90;;;;;;5007212;28;20084;-72
2023/07/31 11:48:20;;;;;;;1999.90;999.90;;;28.60;99.90;;;;;;5013426;28;20034;-74
2023/07/31 11:50:46;;;;;;;1999.90;999.90;;;28.20;99.90;;;;;;5013789;28;20113;-72
2023/07/31 11:53:13;;;;;;;1999.90;999.90;;;27.80;99.90;;;;;;5014479;28;20026;-71
2023/07/31 11:55:39;;;;;;;1999.90;999.90;;;28.20;99.90;;;;;;5021486;28;20038;-71
2023/07/31 11:58:05;;;;;;;1999.90;999.90;;;28.40;99.90;;;;;;5012315;28;20040;-71
2023/07/31 12:00:31;;;;;;;1999.90;999.90;;;27.50;99.90;;;;;;5013214;28;20113;-71